sensor_id;sensor_type;location;lat;lon;timestamp;temperature;humidity
26278;DHT22;14000;52.056;8.510;2022-08-19T00:01:20;19.30;99.90
26278;DHT22;14000;52.056;8.510;2022-08-19T00:03:46;19.30;99.90
26278;DHT22;14000;52.056;8.510;2022-08-19T00:06:12;19.20;99.90
26278;DHT22;14000;52.056;8.510;2022-08-19T00:08:38;19.20;99.90
26278;DHT22;14000;52.056;8.510;2022-08-19T00:11:04;19.20;99.90
26278;DHT22;14000;52.056;8.510;2022-08-19T00:13:30;19.10;99.90
26278;DHT22;14000;52.056;8.510;2022-08-19T00:15:56;19.10;99.90
26278;DHT22;14000;52.056;8.510;2022-08-19T00:18:24;19.00;99.90
26278;DHT22;14000;52.056;8.510;2022-08-19T00:20:49;18.90;99.90
26278;DHT22;14000;52.056;8.510;2022-08-19T00:23:15;18.90;99.90
26278;DHT22;14000;52.056;8.510;2022-08-19T00:25:41;18.80;99.90
26278;DHT22;14000;52.056;8.510;2022-08-19T00:28:07;18.80;99.90
26278;DHT22;14000;52.056;8.510;2022-08-19T00:30:32;18.80;99.90
26278;DHT22;14000;52.056;8.510;2022-08-19T00:32:58;18.70;99.90
26278;DHT22;14000;52.056;8.510;2022-08-19T00:35:24;18.70;99.90
26278;DHT22;14000;52.056;8.510;2022-08-19T00:37:52;18.60;99.90
26278;DHT22;14000;52.056;8.510;2022-08-19T00:40:18;18.60;99.90
26278;DHT22;14000;52.056;8.510;2022-08-19T00:42:45;18.60;99.90
26278;DHT22;14000;52.056;8.510;2022-08-19T00:45:17;18.50;99.90
26278;DHT22;14000;52.056;8.510;2022-08-19T00:47:44;18.50;99.90
26278;DHT22;14000;52.056;8.510;2022-08-19T00:50:12;18.50;99.90
26278;DHT22;14000;52.056;8.510;2022-08-19T00:52:42;18.50;99.90
26278;DHT22;14000;52.056;8.510;2022-08-19T00:55:14;18.50;99.90
26278;DHT22;14000;52.056;8.510;2022-08-19T00:57:44;18.40;99.90
26278;DHT22;14000;52.056;8.510;2022-08-19T01:00:14;18.40;99.90
26278;DHT22;14000;52.056;8.510;2022-08-19T01:02:41;18.30;99.90
26278;DHT22;14000;52.056;8.510;2022-08-19T01:05:11;18.30;99.90
26278;DHT22;14000;52.056;8.510;2022-08-19T01:07:39;18.20;99.90
26278;DHT22;14000;52.056;8.510;2022-08-19T01:10:09;18.20;99.90
26278;DHT22;14000;52.056;8.510;2022-08-19T01:12:35;18.10;99.90
26278;DHT22;14000;52.056;8.510;2022-08-19T01:15:02;18.10;99.90
26278;DHT22;14000;52.056;8.510;2022-08-19T01:17:28;18.00;99.90
26278;DHT22;14000;52.056;8.510;2022-08-19T01:19:54;18.10;99.90
26278;DHT22;14000;52.056;8.510;2022-08-19T01:24:48;18.00;99.90
26278;DHT22;14000;52.056;8.510;2022-08-19T01:27:14;18.00;99.90
26278;DHT22;14000;52.056;8.510;2022-08-19T01:29:42;18.00;99.90
26278;DHT22;14000;52.056;8.510;2022-08-19T01:32:12;18.00;99.90
26278;DHT22;14000;52.056;8.510;2022-08-19T01:34:40;18.00;99.90
26278;DHT22;14000;52.056;8.510;2022-08-19T01:37:10;18.00;99.90
26278;DHT22;14000;52.056;8.510;2022-08-19T01:39:38;18.00;99.90
26278;DHT22;14000;52.056;8.510;2022-08-19T01:42:06;18.00;99.90
26278;DHT22;14000;52.056;8.510;2022-08-19T01:44:32;18.00;99.90
26278;DHT22;14000;52.056;8.510;2022-08-19T01:46:58;18.00;99.90
26278;DHT22;14000;52.056;8.510;2022-08-19T01:49:25;18.00;99.90
26278;DHT22;14000;52.056;8.510;2022-08-19T01:51:53;17.90;99.90
26278;DHT22;14000;52.056;8.510;2022-08-19T01:54:22;17.80;99.90
26278;DHT22;14000;52.056;8.510;2022-08-19T01:56:49;17.70;99.90
26278;DHT22;14000;52.056;8.510;2022-08-19T01:59:19;17.70;99.90
26278;DHT22;14000;52.056;8.510;2022-08-19T02:01:46;17.60;99.90
26278;DHT22;14000;52.056;8.510;2022-08-19T02:04:11;17.60;99.90
26278;DHT22;14000;52.056;8.510;2022-08-19T02:06:37;17.50;99.90
26278;DHT22;14000;52.056;8.510;2022-08-19T02:09:04;17.50;99.90
26278;DHT22;14000;52.056;8.510;2022-08-19T02:11:33;17.50;99.90
26278;DHT22;14000;52.056;8.510;2022-08-19T02:14:00;17.40;99.90
26278;DHT22;14000;52.056;8.510;2022-08-19T02:16:28;17.40;99.90
26278;DHT22;14000;52.056;8.510;2022-08-19T02:18:53;17.40;99.90
26278;DHT22;14000;52.056;8.510;2022-08-19T02:21:21;17.40;99.90
26278;DHT22;14000;52.056;8.510;2022-08-19T02:23:48;17.40;99.90
26278;DHT22;14000;52.056;8.510;2022-08-19T02:26:14;17.40;99.90
26278;DHT22;14000;52.056;8.510;2022-08-19T02:28:41;17.30;99.90
26278;DHT22;14000;52.056;8.510;2022-08-19T02:31:18;17.30;99.90
26278;DHT22;14000;52.056;8.510;2022-08-19T02:33:46;17.30;99.90
26278;DHT22;14000;52.056;8.510;2022-08-19T02:36:13;17.20;99.90
26278;DHT22;14000;52.056;8.510;2022-08-19T02:38:39;17.30;99.90
26278;DHT22;14000;52.056;8.510;2022-08-19T02:41:14;17.20;99.90
26278;DHT22;14000;52.056;8.510;2022-08-19T02:43:40;17.20;99.90
26278;DHT22;14000;52.056;8.510;2022-08-19T02:46:25;17.10;99.90
26278;DHT22;14000;52.056;8.510;2022-08-19T02:48:54;17.10;99.90
26278;DHT22;14000;52.056;8.510;2022-08-19T02:51:25;17.10;99.90
26278;DHT22;14000;52.056;8.510;2022-08-19T02:53:51;17.10;99.90
26278;DHT22;14000;52.056;8.510;2022-08-19T02:56:17;17.10;99.90
26278;DHT22;14000;52.056;8.510;2022-08-19T02:58:43;17.10;99.90
26278;DHT22;14000;52.056;8.510;2022-08-19T03:01:10;17.00;99.90
26278;DHT22;14000;52.056;8.510;2022-08-19T03:03:36;17.00;99.90
26278;DHT22;14000;52.056;8.510;2022-08-19T03:06:11;17.00;99.90
26278;DHT22;14000;52.056;8.510;2022-08-19T03:08:42;17.00;99.90
26278;DHT22;14000;52.056;8.510;2022-08-19T03:11:14;17.00;99.90
26278;DHT22;14000;52.056;8.510;2022-08-19T03:13:40;17.00;99.90
26278;DHT22;14000;52.056;8.510;2022-08-19T03:16:06;17.00;99.90
26278;DHT22;14000;52.056;8.510;2022-08-19T03:18:32;17.00;99.90
26278;DHT22;14000;52.056;8.510;2022-08-19T03:20:57;17.00;99.90
26278;DHT22;14000;52.056;8.510;2022-08-19T03:23:23;16.90;99.90
26278;DHT22;14000;52.056;8.510;2022-08-19T03:25:50;17.00;99.90
26278;DHT22;14000;52.056;8.510;2022-08-19T03:28:17;17.00;99.90
26278;DHT22;14000;52.056;8.510;2022-08-19T03:31:06;17.00;99.90
26278;DHT22;14000;52.056;8.510;2022-08-19T03:33:33;16.90;99.90
26278;DHT22;14000;52.056;8.510;2022-08-19T03:36:07;16.90;99.90
26278;DHT22;14000;52.056;8.510;2022-08-19T03:38:39;16.90;99.90
26278;DHT22;14000;52.056;8.510;2022-08-19T03:41:08;16.90;99.90
26278;DHT22;14000;52.056;8.510;2022-08-19T03:43:38;16.90;99.90
26278;DHT22;14000;52.056;8.510;2022-08-19T03:46:12;16.90;99.90
26278;DHT22;14000;52.056;8.510;2022-08-19T03:48:40;16.90;99.90
26278;DHT22;14000;52.056;8.510;2022-08-19T03:51:07;16.90;99.90
26278;DHT22;14000;52.056;8.510;2022-08-19T03:53:35;16.80;99.90
26278;DHT22;14000;52.056;8.510;2022-08-19T03:56:01;16.90;99.90
26278;DHT22;14000;52.056;8.510;2022-08-19T03:58:28;16.80;99.90
26278;DHT22;14000;52.056;8.510;2022-08-19T04:00:57;16.80;99.90
26278;DHT22;14000;52.056;8.510;2022-08-19T04:03:24;16.80;99.90
26278;DHT22;14000;52.056;8.510;2022-08-19T04:05:52;16.80;99.90
26278;DHT22;14000;52.056;8.510;2022-08-19T04:08:19;16.80;99.90
26278;DHT22;14000;52.056;8.510;2022-08-19T04:10:48;16.70;99.90
26278;DHT22;14000;52.056;8.510;2022-08-19T04:13:17;16.70;99.90
26278;DHT22;14000;52.056;8.510;2022-08-19T04:15:44;16.70;99.90
26278;DHT22;14000;52.056;8.510;2022-08-19T04:18:12;16.70;99.90
26278;DHT22;14000;52.056;8.510;2022-08-19T04:20:45;16.60;99.90
26278;DHT22;14000;52.056;8.510;2022-08-19T04:23:12;16.60;99.90
26278;DHT22;14000;52.056;8.510;2022-08-19T04:25:40;16.60;99.90
26278;DHT22;14000;52.056;8.510;2022-08-19T04:28:07;16.60;99.90
26278;DHT22;14000;52.056;8.510;2022-08-19T04:30:43;16.60;99.90
26278;DHT22;14000;52.056;8.510;2022-08-19T04:33:11;16.60;99.90
26278;DHT22;14000;52.056;8.510;2022-08-19T04:35:42;16.60;99.90
26278;DHT22;14000;52.056;8.510;2022-08-19T04:38:08;16.60;99.90
26278;DHT22;14000;52.056;8.510;2022-08-19T04:40:40;16.50;99.90
26278;DHT22;14000;52.056;8.510;2022-08-19T04:43:24;16.50;99.90
26278;DHT22;14000;52.056;8.510;2022-08-19T04:45:51;16.50;99.90
26278;DHT22;14000;52.056;8.510;2022-08-19T04:48:17;16.50;99.90
26278;DHT22;14000;52.056;8.510;2022-08-19T04:50:56;16.50;99.90
26278;DHT22;14000;52.056;8.510;2022-08-19T04:53:28;16.50;99.90
26278;DHT22;14000;52.056;8.510;2022-08-19T04:55:59;16.60;99.90
26278;DHT22;14000;52.056;8.510;2022-08-19T04:58:27;16.60;99.90
26278;DHT22;14000;52.056;8.510;2022-08-19T05:00:53;16.50;99.90
26278;DHT22;14000;52.056;8.510;2022-08-19T05:03:20;16.50;99.90
26278;DHT22;14000;52.056;8.510;2022-08-19T05:05:47;16.60;99.90
26278;DHT22;14000;52.056;8.510;2022-08-19T05:08:18;16.60;99.90
26278;DHT22;14000;52.056;8.510;2022-08-19T05:10:49;16.60;99.90
26278;DHT22;14000;52.056;8.510;2022-08-19T05:13:17;16.60;99.90
26278;DHT22;14000;52.056;8.510;2022-08-19T05:15:44;16.60;99.90
26278;DHT22;14000;52.056;8.510;2022-08-19T05:18:10;16.60;99.90
26278;DHT22;14000;52.056;8.510;2022-08-19T05:20:55;16.70;99.90
26278;DHT22;14000;52.056;8.510;2022-08-19T05:23:39;16.70;99.90
26278;DHT22;14000;52.056;8.510;2022-08-19T05:26:05;16.70;99.90
26278;DHT22;14000;52.056;8.510;2022-08-19T05:28:30;16.70;99.90
26278;DHT22;14000;52.056;8.510;2022-08-19T05:30:56;16.70;99.90
26278;DHT22;14000;52.056;8.510;2022-08-19T05:33:22;16.80;99.90
26278;DHT22;14000;52.056;8.510;2022-08-19T05:35:50;15.60;99.90
26278;DHT22;14000;52.056;8.510;2022-08-19T05:38:17;16.80;99.90
26278;DHT22;14000;52.056;8.510;2022-08-19T05:40:43;16.80;99.90
26278;DHT22;14000;52.056;8.510;2022-08-19T05:43:14;16.90;99.90
26278;DHT22;14000;52.056;8.510;2022-08-19T05:45:43;16.90;99.90
26278;DHT22;14000;52.056;8.510;2022-08-19T05:48:10;16.90;99.90
26278;DHT22;14000;52.056;8.510;2022-08-19T05:50:38;17.00;99.90
26278;DHT22;14000;52.056;8.510;2022-08-19T05:53:04;17.10;99.90
26278;DHT22;14000;52.056;8.510;2022-08-19T05:55:30;17.10;99.90
26278;DHT22;14000;52.056;8.510;2022-08-19T05:57:57;17.10;99.90
26278;DHT22;14000;52.056;8.510;2022-08-19T06:00:22;17.20;99.90
26278;DHT22;14000;52.056;8.510;2022-08-19T06:02:48;17.20;99.90
26278;DHT22;14000;52.056;8.510;2022-08-19T06:05:14;17.20;99.90
26278;DHT22;14000;52.056;8.510;2022-08-19T06:07:40;17.20;99.90
26278;DHT22;14000;52.056;8.510;2022-08-19T06:10:08;17.30;99.90
26278;DHT22;14000;52.056;8.510;2022-08-19T06:12:34;17.30;99.90
26278;DHT22;14000;52.056;8.510;2022-08-19T06:15:03;17.40;99.90
26278;DHT22;14000;52.056;8.510;2022-08-19T06:17:29;17.40;99.90
26278;DHT22;14000;52.056;8.510;2022-08-19T06:19:56;17.40;99.90
26278;DHT22;14000;52.056;8.510;2022-08-19T06:22:22;17.50;99.90
26278;DHT22;14000;52.056;8.510;2022-08-19T06:24:48;17.50;99.90
26278;DHT22;14000;52.056;8.510;2022-08-19T06:27:18;17.60;99.90
26278;DHT22;14000;52.056;8.510;2022-08-19T06:29:44;17.70;99.90
26278;DHT22;14000;52.056;8.510;2022-08-19T06:32:10;17.80;99.90
26278;DHT22;14000;52.056;8.510;2022-08-19T06:34:36;17.90;99.90
26278;DHT22;14000;52.056;8.510;2022-08-19T06:37:02;18.00;99.90
26278;DHT22;14000;52.056;8.510;2022-08-19T06:39:31;18.10;99.90
26278;DHT22;14000;52.056;8.510;2022-08-19T06:42:00;18.20;99.90
26278;DHT22;14000;52.056;8.510;2022-08-19T06:44:28;18.30;99.90
26278;DHT22;14000;52.056;8.510;2022-08-19T06:46:55;18.40;99.90
26278;DHT22;14000;52.056;8.510;2022-08-19T06:49:22;18.50;99.90
26278;DHT22;14000;52.056;8.510;2022-08-19T06:51:49;18.60;99.90
26278;DHT22;14000;52.056;8.510;2022-08-19T06:54:19;18.70;99.90
26278;DHT22;14000;52.056;8.510;2022-08-19T06:56:44;18.80;99.90
26278;DHT22;14000;52.056;8.510;2022-08-19T06:59:13;18.90;99.90
26278;DHT22;14000;52.056;8.510;2022-08-19T07:01:42;19.00;99.90
26278;DHT22;14000;52.056;8.510;2022-08-19T07:04:09;19.00;99.90
26278;DHT22;14000;52.056;8.510;2022-08-19T07:06:36;19.10;99.90
26278;DHT22;14000;52.056;8.510;2022-08-19T07:09:06;19.20;99.90
26278;DHT22;14000;52.056;8.510;2022-08-19T07:11:32;19.30;99.90
26278;DHT22;14000;52.056;8.510;2022-08-19T07:13:58;19.30;99.90
26278;DHT22;14000;52.056;8.510;2022-08-19T07:16:25;19.40;99.90
26278;DHT22;14000;52.056;8.510;2022-08-19T07:18:51;19.50;99.90
26278;DHT22;14000;52.056;8.510;2022-08-19T07:21:21;19.60;99.90
26278;DHT22;14000;52.056;8.510;2022-08-19T07:23:48;19.70;99.90
26278;DHT22;14000;52.056;8.510;2022-08-19T07:26:21;19.70;99.90
26278;DHT22;14000;52.056;8.510;2022-08-19T07:28:48;19.70;99.90
26278;DHT22;14000;52.056;8.510;2022-08-19T07:31:19;19.80;99.90
26278;DHT22;14000;52.056;8.510;2022-08-19T07:33:46;19.90;99.90
26278;DHT22;14000;52.056;8.510;2022-08-19T07:36:14;20.00;99.90
26278;DHT22;14000;52.056;8.510;2022-08-19T07:38:45;20.00;99.90
26278;DHT22;14000;52.056;8.510;2022-08-19T07:41:15;20.10;99.90
26278;DHT22;14000;52.056;8.510;2022-08-19T07:43:40;20.20;99.90
26278;DHT22;14000;52.056;8.510;2022-08-19T07:46:07;20.30;99.90
26278;DHT22;14000;52.056;8.510;2022-08-19T07:48:33;20.30;99.90
26278;DHT22;14000;52.056;8.510;2022-08-19T07:51:03;20.40;99.90
26278;DHT22;14000;52.056;8.510;2022-08-19T07:53:31;20.60;99.90
26278;DHT22;14000;52.056;8.510;2022-08-19T07:55:58;20.80;99.90
26278;DHT22;14000;52.056;8.510;2022-08-19T07:58:31;20.90;99.90
26278;DHT22;14000;52.056;8.510;2022-08-19T08:00:58;21.00;99.90
26278;DHT22;14000;52.056;8.510;2022-08-19T08:03:24;21.10;99.90
26278;DHT22;14000;52.056;8.510;2022-08-19T08:06:11;21.10;99.90
26278;DHT22;14000;52.056;8.510;2022-08-19T08:08:56;21.20;99.90
26278;DHT22;14000;52.056;8.510;2022-08-19T08:11:39;21.30;99.90
26278;DHT22;14000;52.056;8.510;2022-08-19T08:14:06;21.40;99.90
26278;DHT22;14000;52.056;8.510;2022-08-19T08:16:36;21.50;99.90
26278;DHT22;14000;52.056;8.510;2022-08-19T08:19:06;21.60;99.90
26278;DHT22;14000;52.056;8.510;2022-08-19T08:21:33;21.70;99.90
26278;DHT22;14000;52.056;8.510;2022-08-19T08:23:59;21.80;99.90
26278;DHT22;14000;52.056;8.510;2022-08-19T08:26:25;21.80;99.90
26278;DHT22;14000;52.056;8.510;2022-08-19T08:28:52;21.80;99.90
26278;DHT22;14000;52.056;8.510;2022-08-19T08:31:18;21.90;99.90
26278;DHT22;14000;52.056;8.510;2022-08-19T08:33:45;22.00;99.90
26278;DHT22;14000;52.056;8.510;2022-08-19T08:36:12;22.10;99.90
26278;DHT22;14000;52.056;8.510;2022-08-19T08:38:39;22.20;99.90
26278;DHT22;14000;52.056;8.510;2022-08-19T08:41:35;22.30;99.90
26278;DHT22;14000;52.056;8.510;2022-08-19T08:44:03;22.40;99.90
26278;DHT22;14000;52.056;8.510;2022-08-19T08:47:00;22.50;99.90
26278;DHT22;14000;52.056;8.510;2022-08-19T08:49:31;22.60;99.90
26278;DHT22;14000;52.056;8.510;2022-08-19T08:54:41;22.70;99.90
26278;DHT22;14000;52.056;8.510;2022-08-19T08:57:15;22.60;99.90
26278;DHT22;14000;52.056;8.510;2022-08-19T08:59:46;22.60;99.90
26278;DHT22;14000;52.056;8.510;2022-08-19T09:02:16;22.70;99.90
26278;DHT22;14000;52.056;8.510;2022-08-19T09:04:42;22.70;99.90
26278;DHT22;14000;52.056;8.510;2022-08-19T09:07:23;22.80;99.90
26278;DHT22;14000;52.056;8.510;2022-08-19T09:09:52;22.90;99.90
26278;DHT22;14000;52.056;8.510;2022-08-19T09:15:12;22.90;99.90
26278;DHT22;14000;52.056;8.510;2022-08-19T09:17:38;22.90;99.90
26278;DHT22;14000;52.056;8.510;2022-08-19T09:20:24;22.90;99.90
26278;DHT22;14000;52.056;8.510;2022-08-19T09:22:50;22.90;99.90
26278;DHT22;14000;52.056;8.510;2022-08-19T09:25:18;23.10;99.90
26278;DHT22;14000;52.056;8.510;2022-08-19T09:27:47;23.10;99.90
26278;DHT22;14000;52.056;8.510;2022-08-19T09:30:20;23.30;99.90
26278;DHT22;14000;52.056;8.510;2022-08-19T09:32:47;23.30;99.90
26278;DHT22;14000;52.056;8.510;2022-08-19T09:35:13;23.50;99.90
26278;DHT22;14000;52.056;8.510;2022-08-19T09:37:40;23.50;99.90
26278;DHT22;14000;52.056;8.510;2022-08-19T09:40:06;23.60;99.90
26278;DHT22;14000;52.056;8.510;2022-08-19T09:42:32;23.60;99.90
26278;DHT22;14000;52.056;8.510;2022-08-19T09:44:59;23.50;99.90
26278;DHT22;14000;52.056;8.510;2022-08-19T09:47:25;23.60;99.90
26278;DHT22;14000;52.056;8.510;2022-08-19T09:49:51;23.70;99.90
26278;DHT22;14000;52.056;8.510;2022-08-19T09:52:16;23.80;99.90
26278;DHT22;14000;52.056;8.510;2022-08-19T09:54:43;24.00;99.90
26278;DHT22;14000;52.056;8.510;2022-08-19T09:57:09;24.10;99.90
26278;DHT22;14000;52.056;8.510;2022-08-19T09:59:35;24.30;99.90
26278;DHT22;14000;52.056;8.510;2022-08-19T10:02:01;24.40;99.90
26278;DHT22;14000;52.056;8.510;2022-08-19T10:04:26;24.40;99.90
26278;DHT22;14000;52.056;8.510;2022-08-19T10:07:12;24.40;99.90
26278;DHT22;14000;52.056;8.510;2022-08-19T10:09:37;24.40;99.90
26278;DHT22;14000;52.056;8.510;2022-08-19T10:12:04;24.40;99.90
26278;DHT22;14000;52.056;8.510;2022-08-19T10:14:31;24.60;99.90
26278;DHT22;14000;52.056;8.510;2022-08-19T10:16:57;24.80;99.90
26278;DHT22;14000;52.056;8.510;2022-08-19T10:19:22;24.80;99.90
26278;DHT22;14000;52.056;8.510;2022-08-19T10:21:48;24.60;99.90
26278;DHT22;14000;52.056;8.510;2022-08-19T10:24:14;24.40;99.90
26278;DHT22;14000;52.056;8.510;2022-08-19T10:26:40;24.40;99.90
26278;DHT22;14000;52.056;8.510;2022-08-19T10:29:12;24.40;99.90
26278;DHT22;14000;52.056;8.510;2022-08-19T10:31:41;24.30;99.90
26278;DHT22;14000;52.056;8.510;2022-08-19T10:34:07;24.30;99.90
26278;DHT22;14000;52.056;8.510;2022-08-19T10:36:35;24.30;99.90
26278;DHT22;14000;52.056;8.510;2022-08-19T10:39:08;24.40;99.90
26278;DHT22;14000;52.056;8.510;2022-08-19T10:41:36;24.50;99.90
26278;DHT22;14000;52.056;8.510;2022-08-19T10:44:05;24.60;99.90
26278;DHT22;14000;52.056;8.510;2022-08-19T10:46:33;24.60;99.90
26278;DHT22;14000;52.056;8.510;2022-08-19T10:49:01;24.70;99.90
26278;DHT22;14000;52.056;8.510;2022-08-19T10:51:27;24.80;99.90
26278;DHT22;14000;52.056;8.510;2022-08-19T10:54:11;24.80;99.90
26278;DHT22;14000;52.056;8.510;2022-08-19T10:56:37;24.80;99.90
26278;DHT22;14000;52.056;8.510;2022-08-19T10:59:23;24.80;99.90
26278;DHT22;14000;52.056;8.510;2022-08-19T11:01:50;24.90;99.90
26278;DHT22;14000;52.056;8.510;2022-08-19T11:04:17;24.90;99.90
26278;DHT22;14000;52.056;8.510;2022-08-19T11:06:48;25.00;99.90
26278;DHT22;14000;52.056;8.510;2022-08-19T11:09:16;25.10;99.90
26278;DHT22;14000;52.056;8.510;2022-08-19T11:11:42;25.20;99.90
26278;DHT22;14000;52.056;8.510;2022-08-19T11:14:14;25.30;99.90
26278;DHT22;14000;52.056;8.510;2022-08-19T11:16:43;25.50;99.90
26278;DHT22;14000;52.056;8.510;2022-08-19T11:19:10;25.90;99.90
26278;DHT22;14000;52.056;8.510;2022-08-19T11:21:39;26.80;99.90
26278;DHT22;14000;52.056;8.510;2022-08-19T11:24:08;28.20;99.90
26278;DHT22;14000;52.056;8.510;2022-08-19T11:26:35;29.40;99.90
26278;DHT22;14000;52.056;8.510;2022-08-19T11:29:02;30.30;99.90
26278;DHT22;14000;52.056;8.510;2022-08-19T11:31:30;31.30;99.90
26278;DHT22;14000;52.056;8.510;2022-08-19T11:33:58;32.50;99.90
26278;DHT22;14000;52.056;8.510;2022-08-19T11:36:26;33.50;99.90
26278;DHT22;14000;52.056;8.510;2022-08-19T11:38:52;33.90;99.90
26278;DHT22;14000;52.056;8.510;2022-08-19T11:41:19;34.30;99.90
26278;DHT22;14000;52.056;8.510;2022-08-19T11:43:45;35.30;99.90
26278;DHT22;14000;52.056;8.510;2022-08-19T11:46:13;35.60;99.90
26278;DHT22;14000;52.056;8.510;2022-08-19T11:48:40;35.40;99.90
26278;DHT22;14000;52.056;8.510;2022-08-19T11:51:08;35.30;99.90
26278;DHT22;14000;52.056;8.510;2022-08-19T11:53:35;35.30;99.90
26278;DHT22;14000;52.056;8.510;2022-08-19T11:56:01;35.00;99.90
26278;DHT22;14000;52.056;8.510;2022-08-19T11:58:28;35.60;99.90
26278;DHT22;14000;52.056;8.510;2022-08-19T12:00:55;35.50;99.90
26278;DHT22;14000;52.056;8.510;2022-08-19T12:03:21;35.00;99.90
26278;DHT22;14000;52.056;8.510;2022-08-19T12:05:46;34.80;99.90
26278;DHT22;14000;52.056;8.510;2022-08-19T12:08:12;34.60;99.90
26278;DHT22;14000;52.056;8.510;2022-08-19T12:10:39;34.60;99.90
26278;DHT22;14000;52.056;8.510;2022-08-19T12:13:06;34.30;99.90
26278;DHT22;14000;52.056;8.510;2022-08-19T12:15:39;34.40;99.90
26278;DHT22;14000;52.056;8.510;2022-08-19T12:18:06;33.80;99.90
26278;DHT22;14000;52.056;8.510;2022-08-19T12:20:35;33.70;99.90
26278;DHT22;14000;52.056;8.510;2022-08-19T12:23:01;33.40;99.90
26278;DHT22;14000;52.056;8.510;2022-08-19T12:25:26;32.80;99.90
26278;DHT22;14000;52.056;8.510;2022-08-19T12:27:52;32.20;99.90
26278;DHT22;14000;52.056;8.510;2022-08-19T12:30:18;31.70;99.90
26278;DHT22;14000;52.056;8.510;2022-08-19T12:32:43;31.40;99.90
26278;DHT22;14000;52.056;8.510;2022-08-19T12:35:09;31.00;99.90
26278;DHT22;14000;52.056;8.510;2022-08-19T12:37:36;30.30;99.90
26278;DHT22;14000;52.056;8.510;2022-08-19T12:40:01;30.10;99.90
26278;DHT22;14000;52.056;8.510;2022-08-19T12:42:28;30.10;99.90
26278;DHT22;14000;52.056;8.510;2022-08-19T12:44:54;30.10;99.90
26278;DHT22;14000;52.056;8.510;2022-08-19T12:47:20;30.30;99.90
26278;DHT22;14000;52.056;8.510;2022-08-19T12:49:46;30.40;99.90
26278;DHT22;14000;52.056;8.510;2022-08-19T12:52:13;30.40;99.90
26278;DHT22;14000;52.056;8.510;2022-08-19T12:54:42;30.10;99.90
26278;DHT22;14000;52.056;8.510;2022-08-19T12:57:11;29.90;99.90
26278;DHT22;14000;52.056;8.510;2022-08-19T12:59:38;29.70;99.90
26278;DHT22;14000;52.056;8.510;2022-08-19T13:02:05;29.60;99.90
26278;DHT22;14000;52.056;8.510;2022-08-19T13:04:32;29.70;99.90
26278;DHT22;14000;52.056;8.510;2022-08-19T13:07:02;29.90;99.90
26278;DHT22;14000;52.056;8.510;2022-08-19T13:09:28;29.80;99.90
26278;DHT22;14000;52.056;8.510;2022-08-19T13:11:53;30.00;99.90
26278;DHT22;14000;52.056;8.510;2022-08-19T13:14:19;30.30;99.90
26278;DHT22;14000;52.056;8.510;2022-08-19T13:16:45;30.40;99.90
26278;DHT22;14000;52.056;8.510;2022-08-19T13:19:11;30.10;99.90
26278;DHT22;14000;52.056;8.510;2022-08-19T13:21:38;30.00;99.90
26278;DHT22;14000;52.056;8.510;2022-08-19T13:24:04;29.80;99.90
26278;DHT22;14000;52.056;8.510;2022-08-19T13:26:30;29.90;99.90
26278;DHT22;14000;52.056;8.510;2022-08-19T13:28:56;29.80;99.90
26278;DHT22;14000;52.056;8.510;2022-08-19T13:31:41;30.00;99.90
26278;DHT22;14000;52.056;8.510;2022-08-19T13:34:32;30.00;99.90
26278;DHT22;14000;52.056;8.510;2022-08-19T13:36:59;30.10;99.90
26278;DHT22;14000;52.056;8.510;2022-08-19T13:39:28;30.00;99.90
26278;DHT22;14000;52.056;8.510;2022-08-19T13:41:54;30.10;99.90
26278;DHT22;14000;52.056;8.510;2022-08-19T13:44:20;30.10;99.90
26278;DHT22;14000;52.056;8.510;2022-08-19T13:46:47;30.10;99.90
26278;DHT22;14000;52.056;8.510;2022-08-19T13:49:14;30.20;99.90
26278;DHT22;14000;52.056;8.510;2022-08-19T13:51:41;30.40;99.90
26278;DHT22;14000;52.056;8.510;2022-08-19T13:54:09;30.20;99.90
26278;DHT22;14000;52.056;8.510;2022-08-19T13:56:39;30.30;99.90
26278;DHT22;14000;52.056;8.510;2022-08-19T13:59:05;30.10;99.90
26278;DHT22;14000;52.056;8.510;2022-08-19T14:01:30;29.90;99.90
26278;DHT22;14000;52.056;8.510;2022-08-19T14:03:56;29.80;99.90
26278;DHT22;14000;52.056;8.510;2022-08-19T14:06:22;29.60;99.90
26278;DHT22;14000;52.056;8.510;2022-08-19T14:08:48;29.60;99.90
26278;DHT22;14000;52.056;8.510;2022-08-19T14:11:14;29.50;99.90
26278;DHT22;14000;52.056;8.510;2022-08-19T14:13:40;29.70;99.90
26278;DHT22;14000;52.056;8.510;2022-08-19T14:16:13;30.00;99.90
26278;DHT22;14000;52.056;8.510;2022-08-19T14:18:40;30.20;99.90
26278;DHT22;14000;52.056;8.510;2022-08-19T14:21:05;30.20;99.90
26278;DHT22;14000;52.056;8.510;2022-08-19T14:23:33;30.40;99.90
26278;DHT22;14000;52.056;8.510;2022-08-19T14:26:11;30.40;99.90
26278;DHT22;14000;52.056;8.510;2022-08-19T14:28:37;30.40;99.90
26278;DHT22;14000;52.056;8.510;2022-08-19T14:31:04;30.40;99.90
26278;DHT22;14000;52.056;8.510;2022-08-19T14:33:30;30.20;99.90
26278;DHT22;14000;52.056;8.510;2022-08-19T14:35:57;30.20;99.90
26278;DHT22;14000;52.056;8.510;2022-08-19T14:38:24;30.10;99.90
26278;DHT22;14000;52.056;8.510;2022-08-19T14:40:49;30.00;99.90
26278;DHT22;14000;52.056;8.510;2022-08-19T14:43:17;29.80;99.90
26278;DHT22;14000;52.056;8.510;2022-08-19T14:45:43;29.50;99.90
26278;DHT22;14000;52.056;8.510;2022-08-19T14:48:09;29.30;99.90
26278;DHT22;14000;52.056;8.510;2022-08-19T14:50:35;29.20;99.90
26278;DHT22;14000;52.056;8.510;2022-08-19T14:53:06;29.00;99.90
26278;DHT22;14000;52.056;8.510;2022-08-19T14:55:32;28.90;99.90
26278;DHT22;14000;52.056;8.510;2022-08-19T14:57:58;28.70;99.90
26278;DHT22;14000;52.056;8.510;2022-08-19T15:00:25;28.60;99.90
26278;DHT22;14000;52.056;8.510;2022-08-19T15:02:51;28.40;99.90
26278;DHT22;14000;52.056;8.510;2022-08-19T15:05:19;28.30;99.90
26278;DHT22;14000;52.056;8.510;2022-08-19T15:07:44;28.30;99.90
26278;DHT22;14000;52.056;8.510;2022-08-19T15:10:12;28.30;99.90
26278;DHT22;14000;52.056;8.510;2022-08-19T15:12:38;28.30;99.90
26278;DHT22;14000;52.056;8.510;2022-08-19T15:15:11;28.30;99.90
26278;DHT22;14000;52.056;8.510;2022-08-19T15:17:41;28.30;99.90
26278;DHT22;14000;52.056;8.510;2022-08-19T15:20:08;28.20;99.90
26278;DHT22;14000;52.056;8.510;2022-08-19T15:22:34;28.20;99.90
26278;DHT22;14000;52.056;8.510;2022-08-19T15:25:01;28.10;99.90
26278;DHT22;14000;52.056;8.510;2022-08-19T15:27:27;28.20;99.90
26278;DHT22;14000;52.056;8.510;2022-08-19T15:29:53;28.00;99.90
26278;DHT22;14000;52.056;8.510;2022-08-19T15:32:19;28.00;99.90
26278;DHT22;14000;52.056;8.510;2022-08-19T15:34:44;28.00;99.90
26278;DHT22;14000;52.056;8.510;2022-08-19T15:37:14;28.00;99.90
26278;DHT22;14000;52.056;8.510;2022-08-19T15:39:39;28.00;99.90
26278;DHT22;14000;52.056;8.510;2022-08-19T15:42:05;28.00;99.90
26278;DHT22;14000;52.056;8.510;2022-08-19T15:44:31;28.00;99.90